sensor_id;sensor_type;location;lat;lon;timestamp;P1;durP1;ratioP1;P2;durP2;ratioP2
68072;SDS011;54862;51.502;7.446;2023-02-28T00:00:35;8.20;;;4.57;;
68072;SDS011;54862;51.502;7.446;2023-02-28T00:03:02;8.90;;;4.70;;
68072;SDS011;54862;51.502;7.446;2023-02-28T00:05:28;9.57;;;4.80;;
68072;SDS011;54862;51.502;7.446;2023-02-28T00:07:54;8.43;;;4.18;;
68072;SDS011;54862;51.502;7.446;2023-02-28T00:10:21;11.27;;;4.22;;
68072;SDS011;54862;51.502;7.446;2023-02-28T00:12:48;7.35;;;3.67;;
68072;SDS011;54862;51.502;7.446;2023-02-28T00:15:15;10.35;;;4.55;;
68072;SDS011;54862;51.502;7.446;2023-02-28T00:17:41;8.20;;;4.25;;
68072;SDS011;54862;51.502;7.446;2023-02-28T00:20:07;8.13;;;4.15;;
68072;SDS011;54862;51.502;7.446;2023-02-28T00:22:37;8.65;;;4.40;;
68072;SDS011;54862;51.502;7.446;2023-02-28T00:25:03;8.73;;;3.60;;
68072;SDS011;54862;51.502;7.446;2023-02-28T00:27:30;8.65;;;4.50;;
68072;SDS011;54862;51.502;7.446;2023-02-28T00:29:56;10.13;;;4.82;;
68072;SDS011;54862;51.502;7.446;2023-02-28T00:32:22;10.13;;;4.57;;
68072;SDS011;54862;51.502;7.446;2023-02-28T00:34:47;8.32;;;4.25;;
68072;SDS011;54862;51.502;7.446;2023-02-28T00:37:13;10.20;;;4.65;;
68072;SDS011;54862;51.502;7.446;2023-02-28T00:39:40;9.07;;;4.30;;
68072;SDS011;54862;51.502;7.446;2023-02-28T00:42:06;7.70;;;4.22;;
68072;SDS011;54862;51.502;7.446;2023-02-28T00:44:32;7.95;;;4.28;;
68072;SDS011;54862;51.502;7.446;2023-02-28T00:46:59;7.95;;;4.30;;
68072;SDS011;54862;51.502;7.446;2023-02-28T00:49:25;8.50;;;4.00;;
68072;SDS011;54862;51.502;7.446;2023-02-28T00:51:52;10.57;;;4.10;;
68072;SDS011;54862;51.502;7.446;2023-02-28T00:54:18;7.97;;;3.63;;
68072;SDS011;54862;51.502;7.446;2023-02-28T00:56:44;10.18;;;3.97;;
68072;SDS011;54862;51.502;7.446;2023-02-28T00:59:11;8.35;;;3.35;;
68072;SDS011;54862;51.502;7.446;2023-02-28T01:01:37;7.30;;;3.45;;
68072;SDS011;54862;51.502;7.446;2023-02-28T01:04:03;7.38;;;3.58;;
68072;SDS011;54862;51.502;7.446;2023-02-28T01:06:29;7.38;;;3.38;;
68072;SDS011;54862;51.502;7.446;2023-02-28T01:08:56;7.55;;;3.65;;
68072;SDS011;54862;51.502;7.446;2023-02-28T01:11:22;8.45;;;3.47;;
68072;SDS011;54862;51.502;7.446;2023-02-28T01:13:48;10.60;;;3.45;;
68072;SDS011;54862;51.502;7.446;2023-02-28T01:16:14;7.07;;;3.90;;
68072;SDS011;54862;51.502;7.446;2023-02-28T01:18:40;9.27;;;4.05;;
68072;SDS011;54862;51.502;7.446;2023-02-28T01:21:07;9.25;;;4.18;;
68072;SDS011;54862;51.502;7.446;2023-02-28T01:23:34;7.63;;;4.10;;
68072;SDS011;54862;51.502;7.446;2023-02-28T01:26:13;8.60;;;3.90;;
68072;SDS011;54862;51.502;7.446;2023-02-28T01:28:39;8.10;;;3.55;;
68072;SDS011;54862;51.502;7.446;2023-02-28T01:31:06;9.05;;;4.00;;
68072;SDS011;54862;51.502;7.446;2023-02-28T01:33:32;10.07;;;4.53;;
68072;SDS011;54862;51.502;7.446;2023-02-28T01:35:59;8.07;;;3.90;;
68072;SDS011;54862;51.502;7.446;2023-02-28T01:38:25;7.85;;;3.97;;
68072;SDS011;54862;51.502;7.446;2023-02-28T01:40:51;11.10;;;4.60;;
68072;SDS011;54862;51.502;7.446;2023-02-28T01:43:28;8.75;;;4.03;;
68072;SDS011;54862;51.502;7.446;2023-02-28T01:45:54;8.65;;;4.63;;
68072;SDS011;54862;51.502;7.446;2023-02-28T01:48:22;10.20;;;4.40;;
68072;SDS011;54862;51.502;7.446;2023-02-28T01:50:51;8.63;;;4.80;;
68072;SDS011;54862;51.502;7.446;2023-02-28T01:53:18;8.48;;;4.30;;
68072;SDS011;54862;51.502;7.446;2023-02-28T01:55:47;10.60;;;3.25;;
68072;SDS011;54862;51.502;7.446;2023-02-28T01:58:14;7.53;;;3.88;;
68072;SDS011;54862;51.502;7.446;2023-02-28T02:00:40;9.05;;;3.38;;
68072;SDS011;54862;51.502;7.446;2023-02-28T02:03:12;7.45;;;3.38;;
68072;SDS011;54862;51.502;7.446;2023-02-28T02:05:39;8.85;;;3.30;;
68072;SDS011;54862;51.502;7.446;2023-02-28T02:08:06;8.57;;;3.05;;
68072;SDS011;54862;51.502;7.446;2023-02-28T02:10:39;8.00;;;3.08;;
68072;SDS011;54862;51.502;7.446;2023-02-28T02:13:09;8.60;;;3.17;;
68072;SDS011;54862;51.502;7.446;2023-02-28T02:15:49;7.80;;;3.50;;
68072;SDS011;54862;51.502;7.446;2023-02-28T02:33:43;13.75;;;4.57;;
68072;SDS011;54862;51.502;7.446;2023-02-28T02:36:19;10.00;;;3.72;;
68072;SDS011;54862;51.502;7.446;2023-02-28T02:46:14;8.20;;;3.25;;
68072;SDS011;54862;51.502;7.446;2023-02-28T02:48:42;7.07;;;3.17;;
68072;SDS011;54862;51.502;7.446;2023-02-28T02:51:11;9.60;;;3.47;;
68072;SDS011;54862;51.502;7.446;2023-02-28T02:54:02;7.25;;;3.38;;
68072;SDS011;54862;51.502;7.446;2023-02-28T02:56:26;6.30;;;3.45;;
68072;SDS011;54862;51.502;7.446;2023-02-28T02:58:53;7.72;;;3.50;;
68072;SDS011;54862;51.502;7.446;2023-02-28T03:01:22;6.78;;;3.05;;
68072;SDS011;54862;51.502;7.446;2023-02-28T03:03:55;8.52;;;3.30;;
68072;SDS011;54862;51.502;7.446;2023-02-28T03:06:22;8.43;;;3.40;;
68072;SDS011;54862;51.502;7.446;2023-02-28T03:08:48;8.32;;;3.20;;
68072;SDS011;54862;51.502;7.446;2023-02-28T03:11:14;8.10;;;3.05;;
68072;SDS011;54862;51.502;7.446;2023-02-28T03:16:33;6.25;;;3.13;;
68072;SDS011;54862;51.502;7.446;2023-02-28T03:19:20;7.22;;;3.28;;
68072;SDS011;54862;51.502;7.446;2023-02-28T03:21:51;7.82;;;3.53;;
68072;SDS011;54862;51.502;7.446;2023-02-28T03:27:11;8.23;;;3.10;;
68072;SDS011;54862;51.502;7.446;2023-02-28T03:29:43;6.75;;;3.08;;
68072;SDS011;54862;51.502;7.446;2023-02-28T03:32:13;9.10;;;3.40;;
68072;SDS011;54862;51.502;7.446;2023-02-28T03:34:47;9.10;;;3.40;;
68072;SDS011;54862;51.502;7.446;2023-02-28T03:37:16;8.00;;;3.22;;
68072;SDS011;54862;51.502;7.446;2023-02-28T03:39:44;5.93;;;3.10;;
68072;SDS011;54862;51.502;7.446;2023-02-28T03:42:14;8.50;;;3.25;;
68072;SDS011;54862;51.502;7.446;2023-02-28T03:44:42;8.35;;;3.30;;
68072;SDS011;54862;51.502;7.446;2023-02-28T03:47:11;8.15;;;3.72;;
68072;SDS011;54862;51.502;7.446;2023-02-28T03:49:40;8.05;;;3.00;;
68072;SDS011;54862;51.502;7.446;2023-02-28T03:52:08;8.82;;;3.50;;
68072;SDS011;54862;51.502;7.446;2023-02-28T03:54:41;8.20;;;3.47;;
68072;SDS011;54862;51.502;7.446;2023-02-28T03:57:15;7.38;;;3.20;;
68072;SDS011;54862;51.502;7.446;2023-02-28T03:59:44;6.55;;;3.20;;
68072;SDS011;54862;51.502;7.446;2023-02-28T04:02:11;7.22;;;3.30;;
68072;SDS011;54862;51.502;7.446;2023-02-28T04:04:37;9.57;;;3.17;;
68072;SDS011;54862;51.502;7.446;2023-02-28T04:07:07;7.53;;;3.17;;
68072;SDS011;54862;51.502;7.446;2023-02-28T04:09:33;6.93;;;3.30;;
68072;SDS011;54862;51.502;7.446;2023-02-28T04:11:59;6.63;;;3.33;;
68072;SDS011;54862;51.502;7.446;2023-02-28T04:14:26;8.13;;;3.88;;
68072;SDS011;54862;51.502;7.446;2023-02-28T04:16:52;7.93;;;3.42;;
68072;SDS011;54862;51.502;7.446;2023-02-28T04:19:18;8.35;;;3.88;;
68072;SDS011;54862;51.502;7.446;2023-02-28T04:21:45;7.75;;;4.10;;
68072;SDS011;54862;51.502;7.446;2023-02-28T04:24:15;7.93;;;3.50;;
68072;SDS011;54862;51.502;7.446;2023-02-28T04:26:43;11.77;;;4.75;;
68072;SDS011;54862;51.502;7.446;2023-02-28T04:29:10;7.35;;;3.45;;
68072;SDS011;54862;51.502;7.446;2023-02-28T04:31:36;7.72;;;3.45;;
68072;SDS011;54862;51.502;7.446;2023-02-28T04:34:02;9.10;;;3.83;;
68072;SDS011;54862;51.502;7.446;2023-02-28T04:36:28;8.23;;;3.70;;
68072;SDS011;54862;51.502;7.446;2023-02-28T04:38:54;9.70;;;4.78;;
68072;SDS011;54862;51.502;7.446;2023-02-28T04:41:21;8.30;;;4.30;;
68072;SDS011;54862;51.502;7.446;2023-02-28T04:43:47;7.20;;;3.88;;
68072;SDS011;54862;51.502;7.446;2023-02-28T04:46:13;13.32;;;5.03;;
68072;SDS011;54862;51.502;7.446;2023-02-28T04:48:40;11.75;;;4.90;;
68072;SDS011;54862;51.502;7.446;2023-02-28T04:51:07;7.90;;;3.92;;
68072;SDS011;54862;51.502;7.446;2023-02-28T04:53:34;10.55;;;4.45;;
68072;SDS011;54862;51.502;7.446;2023-02-28T04:56:00;9.75;;;3.85;;
68072;SDS011;54862;51.502;7.446;2023-02-28T04:58:26;8.30;;;4.20;;
68072;SDS011;54862;51.502;7.446;2023-02-28T05:00:53;10.13;;;4.80;;
68072;SDS011;54862;51.502;7.446;2023-02-28T05:03:19;10.88;;;5.00;;
68072;SDS011;54862;51.502;7.446;2023-02-28T05:05:47;7.95;;;4.10;;
68072;SDS011;54862;51.502;7.446;2023-02-28T05:08:13;9.30;;;4.28;;
68072;SDS011;54862;51.502;7.446;2023-02-28T05:10:39;9.43;;;4.43;;
68072;SDS011;54862;51.502;7.446;2023-02-28T05:13:05;8.90;;;3.75;;
68072;SDS011;54862;51.502;7.446;2023-02-28T05:15:31;7.57;;;3.80;;
68072;SDS011;54862;51.502;7.446;2023-02-28T05:17:57;9.73;;;3.88;;
68072;SDS011;54862;51.502;7.446;2023-02-28T05:20:22;7.18;;;3.80;;
68072;SDS011;54862;51.502;7.446;2023-02-28T05:22:49;8.38;;;4.50;;
68072;SDS011;54862;51.502;7.446;2023-02-28T05:25:16;9.05;;;4.22;;
68072;SDS011;54862;51.502;7.446;2023-02-28T05:27:42;10.45;;;4.43;;
68072;SDS011;54862;51.502;7.446;2023-02-28T05:30:09;10.98;;;4.25;;
68072;SDS011;54862;51.502;7.446;2023-02-28T05:32:39;8.63;;;4.22;;
68072;SDS011;54862;51.502;7.446;2023-02-28T05:35:08;7.90;;;4.10;;
68072;SDS011;54862;51.502;7.446;2023-02-28T05:37:34;8.10;;;4.32;;
68072;SDS011;54862;51.502;7.446;2023-02-28T05:40:00;9.13;;;4.32;;
68072;SDS011;54862;51.502;7.446;2023-02-28T05:42:26;9.30;;;4.18;;
68072;SDS011;54862;51.502;7.446;2023-02-28T05:44:52;8.18;;;4.22;;
68072;SDS011;54862;51.502;7.446;2023-02-28T05:47:18;10.35;;;4.10;;
68072;SDS011;54862;51.502;7.446;2023-02-28T05:49:44;11.27;;;4.63;;
68072;SDS011;54862;51.502;7.446;2023-02-28T05:52:10;7.70;;;3.58;;
68072;SDS011;54862;51.502;7.446;2023-02-28T05:54:36;8.90;;;4.10;;
68072;SDS011;54862;51.502;7.446;2023-02-28T05:57:02;9.73;;;4.43;;
68072;SDS011;54862;51.502;7.446;2023-02-28T05:59:28;10.45;;;4.35;;
68072;SDS011;54862;51.502;7.446;2023-02-28T06:01:54;9.10;;;4.35;;
68072;SDS011;54862;51.502;7.446;2023-02-28T06:04:20;8.07;;;3.63;;
68072;SDS011;54862;51.502;7.446;2023-02-28T06:06:46;9.90;;;3.38;;
68072;SDS011;54862;51.502;7.446;2023-02-28T06:09:13;8.05;;;3.67;;
68072;SDS011;54862;51.502;7.446;2023-02-28T06:11:39;7.68;;;3.45;;
68072;SDS011;54862;51.502;7.446;2023-02-28T06:14:05;11.57;;;3.60;;
68072;SDS011;54862;51.502;7.446;2023-02-28T06:16:32;9.57;;;3.95;;
68072;SDS011;54862;51.502;7.446;2023-02-28T06:18:59;6.70;;;3.63;;
68072;SDS011;54862;51.502;7.446;2023-02-28T06:21:25;6.90;;;3.83;;
68072;SDS011;54862;51.502;7.446;2023-02-28T06:23:52;10.20;;;4.18;;
68072;SDS011;54862;51.502;7.446;2023-02-28T06:26:18;6.65;;;3.22;;
68072;SDS011;54862;51.502;7.446;2023-02-28T06:28:44;8.18;;;3.63;;
68072;SDS011;54862;51.502;7.446;2023-02-28T06:31:11;8.68;;;3.83;;
68072;SDS011;54862;51.502;7.446;2023-02-28T06:33:38;8.45;;;3.60;;
68072;SDS011;54862;51.502;7.446;2023-02-28T06:36:04;9.68;;;3.75;;
68072;SDS011;54862;51.502;7.446;2023-02-28T06:38:31;10.13;;;4.60;;
68072;SDS011;54862;51.502;7.446;2023-02-28T06:40:58;8.98;;;4.85;;
68072;SDS011;54862;51.502;7.446;2023-02-28T06:43:24;10.38;;;4.72;;
68072;SDS011;54862;51.502;7.446;2023-02-28T06:45:50;6.80;;;3.80;;
68072;SDS011;54862;51.502;7.446;2023-02-28T06:48:16;8.70;;;4.43;;
68072;SDS011;54862;51.502;7.446;2023-02-28T06:50:42;7.85;;;4.40;;
68072;SDS011;54862;51.502;7.446;2023-02-28T06:53:08;8.88;;;4.25;;
68072;SDS011;54862;51.502;7.446;2023-02-28T06:55:34;9.68;;;4.28;;
68072;SDS011;54862;51.502;7.446;2023-02-28T06:58:03;8.27;;;4.28;;
68072;SDS011;54862;51.502;7.446;2023-02-28T07:00:38;9.05;;;4.15;;
68072;SDS011;54862;51.502;7.446;2023-02-28T07:03:04;9.02;;;4.38;;
68072;SDS011;54862;51.502;7.446;2023-02-28T07:05:30;8.52;;;4.20;;
68072;SDS011;54862;51.502;7.446;2023-02-28T07:07:56;9.30;;;4.07;;
68072;SDS011;54862;51.502;7.446;2023-02-28T07:10:22;10.32;;;4.63;;
68072;SDS011;54862;51.502;7.446;2023-02-28T07:12:48;9.70;;;3.95;;
68072;SDS011;54862;51.502;7.446;2023-02-28T07:15:14;6.75;;;3.55;;
68072;SDS011;54862;51.502;7.446;2023-02-28T07:17:40;10.65;;;4.00;;
68072;SDS011;54862;51.502;7.446;2023-02-28T07:20:06;8.25;;;4.55;;
68072;SDS011;54862;51.502;7.446;2023-02-28T07:22:32;7.53;;;4.43;;
68072;SDS011;54862;51.502;7.446;2023-02-28T07:24:58;8.60;;;4.07;;
68072;SDS011;54862;51.502;7.446;2023-02-28T07:27:24;11.25;;;4.72;;
68072;SDS011;54862;51.502;7.446;2023-02-28T07:29:50;8.43;;;4.22;;
68072;SDS011;54862;51.502;7.446;2023-02-28T07:32:17;8.00;;;3.90;;
68072;SDS011;54862;51.502;7.446;2023-02-28T07:34:43;6.85;;;3.58;;
68072;SDS011;54862;51.502;7.446;2023-02-28T07:37:09;9.27;;;3.60;;
68072;SDS011;54862;51.502;7.446;2023-02-28T07:39:35;8.00;;;3.42;;
68072;SDS011;54862;51.502;7.446;2023-02-28T07:42:05;8.77;;;3.88;;
68072;SDS011;54862;51.502;7.446;2023-02-28T07:44:31;8.88;;;3.53;;
68072;SDS011;54862;51.502;7.446;2023-02-28T07:46:57;12.65;;;5.07;;
68072;SDS011;54862;51.502;7.446;2023-02-28T07:49:23;12.82;;;4.60;;
68072;SDS011;54862;51.502;7.446;2023-02-28T07:51:49;12.07;;;4.53;;
68072;SDS011;54862;51.502;7.446;2023-02-28T07:54:15;10.48;;;4.35;;
68072;SDS011;54862;51.502;7.446;2023-02-28T07:56:41;9.63;;;4.35;;
68072;SDS011;54862;51.502;7.446;2023-02-28T07:59:07;9.52;;;4.55;;
68072;SDS011;54862;51.502;7.446;2023-02-28T08:01:34;10.50;;;4.03;;
68072;SDS011;54862;51.502;7.446;2023-02-28T08:04:00;8.80;;;3.85;;
68072;SDS011;54862;51.502;7.446;2023-02-28T08:06:26;7.82;;;3.65;;
68072;SDS011;54862;51.502;7.446;2023-02-28T08:08:52;8.35;;;3.75;;
68072;SDS011;54862;51.502;7.446;2023-02-28T08:11:18;8.30;;;3.78;;
68072;SDS011;54862;51.502;7.446;2023-02-28T08:13:45;7.93;;;3.40;;
68072;SDS011;54862;51.502;7.446;2023-02-28T08:16:11;10.77;;;3.83;;
68072;SDS011;54862;51.502;7.446;2023-02-28T08:18:42;6.70;;;3.58;;
68072;SDS011;54862;51.502;7.446;2023-02-28T08:21:08;9.02;;;3.63;;
68072;SDS011;54862;51.502;7.446;2023-02-28T08:23:35;6.85;;;3.22;;
68072;SDS011;54862;51.502;7.446;2023-02-28T08:26:01;6.63;;;3.22;;
68072;SDS011;54862;51.502;7.446;2023-02-28T08:28:27;7.32;;;4.25;;
68072;SDS011;54862;51.502;7.446;2023-02-28T08:30:53;6.47;;;3.55;;
68072;SDS011;54862;51.502;7.446;2023-02-28T08:33:20;8.25;;;4.10;;
68072;SDS011;54862;51.502;7.446;2023-02-28T08:35:46;7.28;;;3.67;;
68072;SDS011;54862;51.502;7.446;2023-02-28T08:38:12;8.45;;;3.40;;
68072;SDS011;54862;51.502;7.446;2023-02-28T08:40:38;8.90;;;3.83;;
68072;SDS011;54862;51.502;7.446;2023-02-28T08:43:04;10.15;;;3.97;;
68072;SDS011;54862;51.502;7.446;2023-02-28T08:45:30;8.60;;;3.40;;
68072;SDS011;54862;51.502;7.446;2023-02-28T08:47:56;7.60;;;3.58;;
68072;SDS011;54862;51.502;7.446;2023-02-28T08:50:22;7.03;;;3.55;;
68072;SDS011;54862;51.502;7.446;2023-02-28T08:52:48;7.97;;;3.47;;
68072;SDS011;54862;51.502;7.446;2023-02-28T08:55:14;8.63;;;3.60;;
68072;SDS011;54862;51.502;7.446;2023-02-28T08:57:40;10.77;;;3.60;;
68072;SDS011;54862;51.502;7.446;2023-02-28T09:00:06;10.40;;;3.65;;
68072;SDS011;54862;51.502;7.446;2023-02-28T09:02:33;8.35;;;3.65;;
68072;SDS011;54862;51.502;7.446;2023-02-28T09:04:59;9.50;;;3.50;;
68072;SDS011;54862;51.502;7.446;2023-02-28T09:07:25;8.60;;;3.40;;
68072;SDS011;54862;51.502;7.446;2023-02-28T09:09:51;6.32;;;2.80;;
68072;SDS011;54862;51.502;7.446;2023-02-28T09:12:26;7.40;;;3.25;;
68072;SDS011;54862;51.502;7.446;2023-02-28T09:14:52;7.07;;;3.08;;
68072;SDS011;54862;51.502;7.446;2023-02-28T09:17:19;7.38;;;3.35;;
68072;SDS011;54862;51.502;7.446;2023-02-28T09:19:47;6.18;;;2.90;;
68072;SDS011;54862;51.502;7.446;2023-02-28T09:22:13;8.05;;;3.10;;
68072;SDS011;54862;51.502;7.446;2023-02-28T09:24:39;7.22;;;2.80;;
68072;SDS011;54862;51.502;7.446;2023-02-28T09:27:05;6.03;;;2.65;;
68072;SDS011;54862;51.502;7.446;2023-02-28T09:29:32;5.63;;;2.90;;
68072;SDS011;54862;51.502;7.446;2023-02-28T09:31:58;6.15;;;3.05;;
68072;SDS011;54862;51.502;7.446;2023-02-28T09:34:25;6.05;;;2.90;;
68072;SDS011;54862;51.502;7.446;2023-02-28T09:36:52;6.55;;;2.88;;
68072;SDS011;54862;51.502;7.446;2023-02-28T09:39:20;5.78;;;2.80;;
68072;SDS011;54862;51.502;7.446;2023-02-28T09:41:47;9.35;;;3.75;;
68072;SDS011;54862;51.502;7.446;2023-02-28T09:46:48;7.10;;;3.37;;
68072;SDS011;54862;51.502;7.446;2023-02-28T09:49:22;7.55;;;3.53;;
68072;SDS011;54862;51.502;7.446;2023-02-28T09:51:52;8.00;;;3.38;;
68072;SDS011;54862;51.502;7.446;2023-02-28T09:54:21;5.68;;;2.90;;
68072;SDS011;54862;51.502;7.446;2023-02-28T09:56:53;6.13;;;2.80;;
68072;SDS011;54862;51.502;7.446;2023-02-28T10:01:57;5.47;;;2.78;;
68072;SDS011;54862;51.502;7.446;2023-02-28T10:06:59;5.80;;;2.53;;
68072;SDS011;54862;51.502;7.446;2023-02-28T10:09:30;7.50;;;2.80;;
68072;SDS011;54862;51.502;7.446;2023-02-28T10:12:00;6.85;;;2.92;;
68072;SDS011;54862;51.502;7.446;2023-02-28T10:14:29;5.15;;;2.63;;
68072;SDS011;54862;51.502;7.446;2023-02-28T10:17:02;6.47;;;2.95;;
68072;SDS011;54862;51.502;7.446;2023-02-28T10:21:59;6.47;;;2.63;;
68072;SDS011;54862;51.502;7.446;2023-02-28T10:24:34;6.75;;;2.85;;
68072;SDS011;54862;51.502;7.446;2023-02-28T10:27:13;5.43;;;2.30;;
68072;SDS011;54862;51.502;7.446;2023-02-28T10:29:40;4.82;;;2.28;;
68072;SDS011;54862;51.502;7.446;2023-02-28T10:32:08;4.80;;;2.45;;
68072;SDS011;54862;51.502;7.446;2023-02-28T10:34:35;4.38;;;2.50;;
68072;SDS011;54862;51.502;7.446;2023-02-28T10:37:01;5.95;;;2.53;;
68072;SDS011;54862;51.502;7.446;2023-02-28T10:39:36;4.30;;;2.22;;
68072;SDS011;54862;51.502;7.446;2023-02-28T10:42:03;6.57;;;2.67;;
68072;SDS011;54862;51.502;7.446;2023-02-28T10:44:29;4.32;;;2.22;;
68072;SDS011;54862;51.502;7.446;2023-02-28T10:46:55;5.38;;;2.42;;
68072;SDS011;54862;51.502;7.446;2023-02-28T10:49:28;7.50;;;2.60;;
68072;SDS011;54862;51.502;7.446;2023-02-28T10:51:55;5.50;;;2.60;;
68072;SDS011;54862;51.502;7.446;2023-02-28T10:54:23;6.25;;;3.13;;
68072;SDS011;54862;51.502;7.446;2023-02-28T10:57:35;6.75;;;2.80;;
68072;SDS011;54862;51.502;7.446;2023-02-28T10:59:36;7.78;;;2.80;;
68072;SDS011;54862;51.502;7.446;2023-02-28T11:02:08;6.22;;;3.10;;
68072;SDS011;54862;51.502;7.446;2023-02-28T11:04:48;5.38;;;2.70;;
68072;SDS011;54862;51.502;7.446;2023-02-28T11:07:18;8.07;;;3.30;;
68072;SDS011;54862;51.502;7.446;2023-02-28T11:09:45;9.68;;;3.20;;
68072;SDS011;54862;51.502;7.446;2023-02-28T11:12:23;5.50;;;2.67;;
68072;SDS011;54862;51.502;7.446;2023-02-28T11:14:50;4.63;;;2.70;;
68072;SDS011;54862;51.502;7.446;2023-02-28T11:17:21;6.93;;;3.00;;
68072;SDS011;54862;51.502;7.446;2023-02-28T11:19:50;6.57;;;2.80;;
68072;SDS011;54862;51.502;7.446;2023-02-28T11:22:20;7.97;;;3.50;;
68072;SDS011;54862;51.502;7.446;2023-02-28T11:24:48;7.65;;;3.25;;
68072;SDS011;54862;51.502;7.446;2023-02-28T11:29:56;5.18;;;2.67;;
68072;SDS011;54862;51.502;7.446;2023-02-28T11:32:26;5.75;;;3.03;;
68072;SDS011;54862;51.502;7.446;2023-02-28T11:37:29;6.68;;;2.90;;
68072;SDS011;54862;51.502;7.446;2023-02-28T11:39:56;6.80;;;3.05;;
68072;SDS011;54862;51.502;7.446;2023-02-28T11:42:45;5.97;;;2.60;;
68072;SDS011;54862;51.502;7.446;2023-02-28T11:52:54;7.50;;;3.17;;
68072;SDS011;54862;51.502;7.446;2023-02-28T11:57:58;6.97;;;3.00;;
68072;SDS011;54862;51.502;7.446;2023-02-28T12:10:57;6.15;;;3.25;;
68072;SDS011;54862;51.502;7.446;2023-02-28T12:16:38;5.78;;;2.78;;
68072;SDS011;54862;51.502;7.446;2023-02-28T12:19:15;7.30;;;3.35;;
68072;SDS011;54862;51.502;7.446;2023-02-28T12:21:49;5.47;;;3.10;;
68072;SDS011;54862;51.502;7.446;2023-02-28T12:24:23;7.30;;;3.17;;
68072;SDS011;54862;51.502;7.446;2023-02-28T12:26:51;6.28;;;3.08;;
68072;SDS011;54862;51.502;7.446;2023-02-28T12:29:19;6.80;;;3.25;;
68072;SDS011;54862;51.502;7.446;2023-02-28T12:31:53;8.02;;;3.33;;
68072;SDS011;54862;51.502;7.446;2023-02-28T12:34:22;8.35;;;3.20;;
68072;SDS011;54862;51.502;7.446;2023-02-28T12:36:51;7.03;;;3.78;;
68072;SDS011;54862;51.502;7.446;2023-02-28T12:39:29;7.55;;;3.40;;
68072;SDS011;54862;51.502;7.446;2023-02-28T12:42:17;6.80;;;3.60;;
68072;SDS011;54862;51.502;7.446;2023-02-28T12:47:13;6.13;;;3.20;;
68072;SDS011;54862;51.502;7.446;2023-02-28T12:49:50;8.23;;;3.80;;
68072;SDS011;54862;51.502;7.446;2023-02-28T12:52:19;7.43;;;3.25;;
68072;SDS011;54862;51.502;7.446;2023-02-28T12:54:47;7.10;;;3.30;;
68072;SDS011;54862;51.502;7.446;2023-02-28T12:57:25;7.85;;;4.05;;
68072;SDS011;54862;51.502;7.446;2023-02-28T12:59:55;9.15;;;3.78;;
68072;SDS011;54862;51.502;7.446;2023-02-28T13:10:17;7.50;;;3.45;;
68072;SDS011;54862;51.502;7.446;2023-02-28T13:12:51;6.88;;;3.63;;
68072;SDS011;54862;51.502;7.446;2023-02-28T13:15:18;6.93;;;3.78;;
68072;SDS011;54862;51.502;7.446;2023-02-28T13:17:49;6.38;;;3.65;;
68072;SDS011;54862;51.502;7.446;2023-02-28T13:20:20;8.55;;;3.72;;
68072;SDS011;54862;51.502;7.446;2023-02-28T13:22:47;6.50;;;3.55;;
68072;SDS011;54862;51.502;7.446;2023-02-28T13:27:49;6.28;;;3.30;;
68072;SDS011;54862;51.502;7.446;2023-02-28T13:36:08;5.72;;;3.08;;
68072;SDS011;54862;51.502;7.446;2023-02-28T13:38:35;7.05;;;3.45;;
68072;SDS011;54862;51.502;7.446;2023-02-28T13:46:25;6.20;;;3.40;;
68072;SDS011;54862;51.502;7.446;2023-02-28T13:48:51;7.97;;;3.65;;
68072;SDS011;54862;51.502;7.446;2023-02-28T13:54:06;6.28;;;3.15;;
68072;SDS011;54862;51.502;7.446;2023-02-28T13:56:42;8.50;;;3.78;;
68072;SDS011;54862;51.502;7.446;2023-02-28T13:59:26;9.00;;;3.95;;
68072;SDS011;54862;51.502;7.446;2023-02-28T14:02:11;12.80;;;4.32;;
68072;SDS011;54862;51.502;7.446;2023-02-28T14:04:48;10.52;;;4.75;;
68072;SDS011;54862;51.502;7.446;2023-02-28T14:07:18;9.82;;;4.50;;
68072;SDS011;54862;51.502;7.446;2023-02-28T14:09:48;8.60;;;4.30;;
68072;SDS011;54862;51.502;7.446;2023-02-28T14:15:01;7.75;;;3.67;;
68072;SDS011;54862;51.502;7.446;2023-02-28T14:17:28;7.00;;;3.38;;
68072;SDS011;54862;51.502;7.446;2023-02-28T14:19:54;6.90;;;3.65;;
68072;SDS011;54862;51.502;7.446;2023-02-28T14:22:38;8.02;;;3.45;;
68072;SDS011;54862;51.502;7.446;2023-02-28T14:30:26;6.45;;;3.38;;
68072;SDS011;54862;51.502;7.446;2023-02-28T14:33:00;9.18;;;4.00;;
68072;SDS011;54862;51.502;7.446;2023-02-28T14:38:05;11.10;;;4.10;;
68072;SDS011;54862;51.502;7.446;2023-02-28T14:40:33;9.15;;;4.07;;
68072;SDS011;54862;51.502;7.446;2023-02-28T14:43:03;8.98;;;4.10;;
68072;SDS011;54862;51.502;7.446;2023-02-28T14:45:30;7.57;;;3.83;;
68072;SDS011;54862;51.502;7.446;2023-02-28T14:47:57;9.13;;;3.80;;
68072;SDS011;54862;51.502;7.446;2023-02-28T14:50:25;6.57;;;3.65;;
68072;SDS011;54862;51.502;7.446;2023-02-28T14:52:53;8.77;;;3.88;;
68072;SDS011;54862;51.502;7.446;2023-02-28T14:55:21;8.27;;;4.05;;
68072;SDS011;54862;51.502;7.446;2023-02-28T14:57:56;7.90;;;3.63;;
68072;SDS011;54862;51.502;7.446;2023-02-28T15:00:29;8.60;;;4.13;;
68072;SDS011;54862;51.502;7.446;2023-02-28T15:02:56;7.25;;;3.45;;
68072;SDS011;54862;51.502;7.446;2023-02-28T15:05:24;8.82;;;3.60;;
68072;SDS011;54862;51.502;7.446;2023-02-28T15:08:00;9.25;;;3.90;;
68072;SDS011;54862;51.502;7.446;2023-02-28T15:10:26;7.88;;;4.05;;
68072;SDS011;54862;51.502;7.446;2023-02-28T15:13:02;5.70;;;3.30;;
68072;SDS011;54862;51.502;7.446;2023-02-28T15:17:59;6.32;;;3.50;;
68072;SDS011;54862;51.502;7.446;2023-02-28T15:20:26;7.28;;;3.58;;
68072;SDS011;54862;51.502;7.446;2023-02-28T15:22:52;7.25;;;3.75;;
68072;SDS011;54862;51.502;7.446;2023-02-28T15:25:21;7.10;;;3.58;;
68072;SDS011;54862;51.502;7.446;2023-02-28T15:27:52;9.10;;;4.03;;
68072;SDS011;54862;51.502;7.446;2023-02-28T15:30:20;7.53;;;3.72;;
68072;SDS011;54862;51.502;7.446;2023-02-28T15:33:01;7.47;;;3.65;;
68072;SDS011;54862;51.502;7.446;2023-02-28T15:35:29;8.05;;;3.92;;
68072;SDS011;54862;51.502;7.446;2023-02-28T15:40:50;9.63;;;4.07;;
68072;SDS011;54862;51.502;7.446;2023-02-28T15:43:32;8.32;;;3.70;;
68072;SDS011;54862;51.502;7.446;2023-02-28T15:45:59;12.52;;;4.65;;
68072;SDS011;54862;51.502;7.446;2023-02-28T15:48:30;7.82;;;3.92;;
68072;SDS011;54862;51.502;7.446;2023-02-28T15:51:06;7.45;;;3.58;;
68072;SDS011;54862;51.502;7.446;2023-02-28T15:53:33;7.28;;;3.70;;
68072;SDS011;54862;51.502;7.446;2023-02-28T15:56:04;9.98;;;3.92;;
68072;SDS011;54862;51.502;7.446;2023-02-28T15:58:32;9.43;;;4.28;;
68072;SDS011;54862;51.502;7.446;2023-02-28T16:01:04;6.95;;;4.28;;
68072;SDS011;54862;51.502;7.446;2023-02-28T16:03:41;9.20;;;3.97;;
68072;SDS011;54862;51.502;7.446;2023-02-28T16:08:42;7.88;;;3.78;;
68072;SDS011;54862;51.502;7.446;2023-02-28T16:11:08;6.72;;;3.25;;
68072;SDS011;54862;51.502;7.446;2023-02-28T16:13:34;9.43;;;4.10;;
68072;SDS011;54862;51.502;7.446;2023-02-28T16:16:00;8.13;;;3.92;;
68072;SDS011;54862;51.502;7.446;2023-02-28T16:18:26;7.85;;;4.25;;
68072;SDS011;54862;51.502;7.446;2023-02-28T16:20:52;8.55;;;4.00;;
68072;SDS011;54862;51.502;7.446;2023-02-28T16:23:18;7.43;;;3.97;;
68072;SDS011;54862;51.502;7.446;2023-02-28T16:25:44;8.35;;;4.03;;
68072;SDS011;54862;51.502;7.446;2023-02-28T16:28:32;7.30;;;3.88;;
68072;SDS011;54862;51.502;7.446;2023-02-28T16:30:57;9.68;;;3.97;;
68072;SDS011;54862;51.502;7.446;2023-02-28T16:33:25;7.72;;;3.85;;
68072;SDS011;54862;51.502;7.446;2023-02-28T16:35:51;7.88;;;3.40;;
68072;SDS011;54862;51.502;7.446;2023-02-28T16:38:17;9.23;;;3.50;;
68072;SDS011;54862;51.502;7.446;2023-02-28T16:40:43;8.32;;;4.07;;
68072;SDS011;54862;51.502;7.446;2023-02-28T16:43:13;7.10;;;3.63;;
68072;SDS011;54862;51.502;7.446;2023-02-28T16:45:41;7.35;;;3.30;;